Terminal Aerodrome Forecast
Issued by NWS Mt. Holly, NJ

Home | Current Version | Previous Version | Text Only | Print | Product List | Glossary On
Versions: 1 2 3 4 5 6 7 8 9 10 11 12 13 14 15 16 17 18 19 20 21 22 23 24 25
961
FTUS41 KPHI 181239 AAA
TAFACY
TAF AMD
KACY 181239Z 1813/1912 18012KT P6SM VCSH OVC010
      TEMPO 1813/1816 3SM SHRA BKN008
     FM181600 18010KT P6SM OVC015
     FM181800 19009KT P6SM FEW030 BKN080
     FM190100 20010KT 5SM -SHRA VCTS SCT025CB BKN050 PROB30
      1902/1904 2SM TSRA BKN025CB
     FM190500 22006KT P6SM FEW030 OVC060=

USA.gov is the U.S. government's official web portal to all federal, state and local government web resources and services.